createdAt,value
2022-10-16T00:00:06.948Z,10.80
2022-10-16T00:02:37.329Z,10.80
2022-10-16T00:08:46.364Z,10.80
2022-10-16T00:11:23.648Z,10.70
2022-10-16T00:13:56.307Z,10.60
2022-10-16T00:16:32.729Z,10.70
2022-10-16T00:19:10.294Z,10.80
2022-10-16T00:21:40.708Z,10.90
2022-10-16T00:24:10.968Z,10.90
2022-10-16T00:26:40.715Z,10.90
2022-10-16T00:29:10.909Z,10.80
2022-10-16T00:31:40.603Z,10.90
2022-10-16T00:34:11.138Z,11.00
2022-10-16T00:36:39.864Z,11.00
2022-10-16T00:39:16.529Z,11.00
2022-10-16T00:41:48.604Z,11.00
2022-10-16T00:44:54.189Z,11.00
2022-10-16T00:47:31.885Z,11.00
2022-10-16T00:50:33.134Z,11.00
2022-10-16T00:53:03.482Z,11.10
2022-10-16T00:55:35.005Z,11.10
2022-10-16T00:58:09.898Z,11.10
2022-10-16T01:00:48.684Z,11.10
2022-10-16T01:03:38.520Z,11.10
2022-10-16T01:06:30.652Z,11.10
2022-10-16T01:09:36.045Z,11.10
2022-10-16T01:16:00.427Z,11.10
2022-10-16T01:18:52.243Z,11.10
2022-10-16T01:21:37.704Z,11.10
2022-10-16T01:24:36.620Z,11.20
2022-10-16T01:27:30.663Z,11.20
2022-10-16T01:30:43.549Z,11.30
2022-10-16T01:33:14.739Z,11.30
2022-10-16T01:35:49.784Z,11.30
2022-10-16T01:38:38.188Z,11.30
2022-10-16T01:41:36.321Z,11.20
2022-10-16T01:44:20.649Z,11.20
2022-10-16T01:46:52.227Z,11.20
2022-10-16T01:49:21.729Z,11.20
2022-10-16T01:51:53.402Z,11.20
2022-10-16T01:54:22.609Z,11.20
2022-10-16T01:56:51.748Z,11.30
2022-10-16T01:59:22.369Z,11.30
2022-10-16T02:01:55.699Z,11.20
2022-10-16T02:04:29.176Z,11.30
2022-10-16T02:06:56.634Z,11.20
2022-10-16T02:09:23.916Z,11.20
2022-10-16T02:11:53.816Z,11.10
2022-10-16T02:14:21.144Z,11.10
2022-10-16T02:16:48.340Z,11.10
2022-10-16T02:19:17.866Z,11.20
2022-10-16T02:22:05.942Z,11.20
2022-10-16T02:24:57.534Z,11.20
2022-10-16T02:27:41.480Z,11.20
2022-10-16T02:30:14.899Z,11.20
2022-10-16T02:32:45.865Z,11.30
2022-10-16T02:35:13.939Z,11.30
2022-10-16T02:37:42.998Z,11.30
2022-10-16T02:40:11.237Z,11.30
2022-10-16T02:42:40.859Z,11.30
2022-10-16T02:45:10.289Z,11.20
2022-10-16T02:47:37.443Z,11.20
2022-10-16T02:50:05.503Z,11.20
2022-10-16T02:52:32.760Z,11.10
2022-10-16T02:54:59.764Z,11.10
2022-10-16T02:57:27.507Z,11.10
2022-10-16T02:59:54.944Z,11.00
2022-10-16T03:02:21.999Z,10.90
2022-10-16T03:04:49.063Z,10.80
2022-10-16T03:07:16.198Z,10.70
2022-10-16T03:09:43.738Z,10.60
2022-10-16T03:12:13.111Z,10.40
2022-10-16T03:14:41.014Z,10.40
2022-10-16T03:17:11.226Z,10.40
2022-10-16T03:19:38.241Z,10.40
2022-10-16T03:22:05.529Z,10.40
2022-10-16T03:24:32.567Z,10.40
2022-10-16T03:26:59.605Z,10.40
2022-10-16T03:29:26.934Z,10.40
2022-10-16T03:31:53.989Z,10.40
2022-10-16T03:34:21.113Z,10.40
2022-10-16T03:36:48.144Z,10.30
2022-10-16T03:39:15.356Z,10.20
2022-10-16T03:41:42.390Z,10.20
2022-10-16T03:44:09.608Z,10.20
2022-10-16T03:46:36.635Z,10.20
2022-10-16T03:49:06.070Z,10.20
2022-10-16T03:51:36.080Z,10.20
2022-10-16T03:54:03.258Z,10.20
2022-10-16T03:56:30.513Z,10.30
2022-10-16T03:58:57.578Z,10.30
2022-10-16T04:01:24.711Z,10.40
2022-10-16T04:03:51.819Z,10.40
2022-10-16T04:06:18.870Z,10.40
2022-10-16T04:08:45.958Z,10.50
2022-10-16T04:11:13.025Z,10.50
2022-10-16T04:13:40.069Z,10.50
2022-10-16T04:16:07.353Z,10.50
2022-10-16T04:18:34.495Z,10.50
2022-10-16T04:21:06.298Z,10.60
2022-10-16T04:23:33.904Z,10.50
2022-10-16T04:26:01.698Z,10.60
2022-10-16T04:28:29.647Z,10.70
2022-10-16T04:30:56.884Z,10.70
2022-10-16T04:33:23.986Z,10.70
2022-10-16T04:35:58.305Z,10.70
2022-10-16T04:38:25.916Z,10.80
2022-10-16T04:40:53.664Z,10.70
2022-10-16T04:43:21.591Z,10.70
2022-10-16T04:45:49.174Z,10.80
2022-10-16T04:48:16.339Z,10.80
2022-10-16T04:50:43.538Z,10.80
2022-10-16T04:53:10.606Z,10.80
2022-10-16T04:55:38.478Z,10.70
2022-10-16T04:58:06.404Z,10.70
2022-10-16T05:00:33.478Z,10.70
2022-10-16T05:03:01.949Z,10.70
2022-10-16T05:05:29.399Z,10.80
2022-10-16T05:07:56.423Z,10.70
2022-10-16T05:10:23.722Z,10.70
2022-10-16T05:12:52.919Z,10.70
2022-10-16T05:15:20.068Z,10.70
2022-10-16T05:17:47.237Z,10.70
2022-10-16T05:20:14.343Z,10.70
2022-10-16T05:22:41.533Z,10.70
2022-10-16T05:25:08.666Z,10.70
2022-10-16T05:27:35.644Z,10.70
2022-10-16T05:30:02.659Z,10.70
2022-10-16T05:32:30.009Z,10.70
2022-10-16T05:34:57.059Z,10.70
2022-10-16T05:37:24.842Z,10.70
2022-10-16T05:39:52.222Z,10.70
2022-10-16T05:42:19.457Z,10.70
2022-10-16T05:44:46.519Z,10.80
2022-10-16T05:47:16.694Z,10.80
2022-10-16T05:49:43.749Z,10.90
2022-10-16T05:52:10.778Z,10.90
2022-10-16T05:54:37.966Z,10.90
2022-10-16T05:57:06.827Z,10.90
2022-10-16T05:59:33.983Z,11.00
2022-10-16T06:02:01.199Z,10.90
2022-10-16T06:04:28.324Z,11.00
2022-10-16T06:06:55.380Z,11.20
2022-10-16T06:09:22.505Z,11.20
2022-10-16T06:11:49.503Z,11.20
2022-10-16T06:14:16.682Z,11.20
2022-10-16T06:16:44.013Z,11.30
2022-10-16T06:19:11.099Z,11.20
2022-10-16T06:21:38.193Z,11.20
2022-10-16T06:24:05.376Z,11.20
2022-10-16T06:26:33.041Z,11.20
2022-10-16T06:29:01.481Z,11.10
2022-10-16T06:31:32.229Z,11.10
2022-10-16T06:33:59.472Z,11.10
2022-10-16T06:36:27.514Z,11.10
2022-10-16T06:38:55.206Z,11.10
2022-10-16T06:41:24.043Z,11.20
2022-10-16T06:43:51.684Z,11.20
2022-10-16T06:46:22.438Z,11.40
2022-10-16T06:48:49.653Z,11.50
2022-10-16T06:51:24.418Z,11.70
2022-10-16T06:54:02.824Z,12.00
2022-10-16T06:56:32.567Z,12.20
2022-10-16T06:59:00.230Z,12.40
2022-10-16T07:01:28.141Z,12.70
2022-10-16T07:03:55.442Z,12.90
2022-10-16T07:06:25.713Z,13.10
2022-10-16T07:08:53.646Z,13.30
2022-10-16T07:11:23.458Z,13.40
2022-10-16T07:13:55.079Z,13.70
2022-10-16T07:16:28.796Z,13.90
2022-10-16T07:19:01.126Z,14.20
2022-10-16T07:21:37.127Z,14.50
2022-10-16T07:24:12.109Z,15.00
2022-10-16T07:26:40.463Z,15.40
2022-10-16T07:29:22.398Z,15.70
2022-10-16T07:31:50.775Z,15.80
2022-10-16T07:34:20.179Z,15.90
2022-10-16T07:36:50.668Z,16.20
2022-10-16T07:39:18.198Z,16.50
2022-10-16T07:41:45.285Z,17.00
2022-10-16T07:44:12.471Z,17.50
2022-10-16T07:46:39.482Z,18.00
2022-10-16T07:49:06.544Z,18.30
2022-10-16T07:51:34.085Z,18.40
2022-10-16T07:54:01.198Z,18.40
2022-10-16T07:56:28.395Z,18.20
2022-10-16T07:59:01.758Z,18.60
2022-10-16T08:01:31.195Z,18.70
2022-10-16T08:03:59.751Z,19.10
2022-10-16T08:06:30.922Z,19.40
2022-10-16T08:09:03.101Z,19.90
2022-10-16T08:11:33.437Z,20.50
2022-10-16T08:14:04.245Z,21.20
2022-10-16T08:16:32.690Z,22.30
2022-10-16T08:19:02.959Z,24.00
2022-10-16T08:21:32.534Z,24.80
2022-10-16T08:24:03.603Z,24.60
2022-10-16T08:26:31.882Z,23.80
2022-10-16T08:29:00.096Z,22.90
2022-10-16T08:31:29.653Z,22.20
2022-10-16T08:34:09.745Z,21.50
2022-10-16T08:36:39.698Z,20.80
2022-10-16T08:39:10.633Z,20.20
2022-10-16T08:42:08.798Z,19.90
2022-10-16T08:45:04.853Z,20.30
2022-10-16T08:48:09.048Z,20.10
2022-10-16T08:50:42.134Z,19.90
2022-10-16T08:53:26.772Z,20.00
2022-10-16T08:55:55.473Z,19.70
2022-10-16T08:58:31.397Z,19.50
2022-10-16T09:01:17.278Z,19.50
2022-10-16T09:04:18.078Z,18.40
2022-10-16T09:07:23.760Z,15.30
2022-10-16T09:10:40.302Z,13.10
2022-10-16T09:13:52.034Z,11.60
2022-10-16T09:16:39.838Z,10.90
2022-10-16T09:19:49.173Z,10.70
2022-10-16T09:22:20.489Z,10.60
2022-10-16T09:24:50.773Z,11.10
2022-10-16T09:27:20.893Z,12.40
2022-10-16T09:29:50.256Z,13.50
2022-10-16T09:32:31.513Z,14.50
2022-10-16T09:35:04.654Z,15.40
2022-10-16T09:37:36.623Z,16.10
2022-10-16T09:40:09.598Z,16.90
2022-10-16T09:42:40.583Z,17.30
2022-10-16T09:45:27.281Z,17.60
2022-10-16T09:47:57.912Z,18.00
2022-10-16T09:50:29.902Z,18.20
2022-10-16T09:53:23.459Z,18.60
2022-10-16T09:55:53.559Z,18.90
2022-10-16T09:58:27.055Z,19.10
2022-10-16T10:00:58.180Z,19.10
2022-10-16T10:03:48.002Z,19.40
2022-10-16T10:06:42.362Z,19.20
2022-10-16T10:09:28.034Z,19.20
2022-10-16T10:12:00.688Z,19.40
2022-10-16T10:15:14.601Z,19.60
2022-10-16T10:18:28.022Z,19.40
2022-10-16T10:21:07.469Z,19.60
2022-10-16T10:23:37.014Z,19.80
2022-10-16T10:26:25.798Z,19.80
2022-10-16T10:29:37.656Z,19.70
2022-10-16T10:33:02.593Z,19.60
2022-10-16T10:35:46.208Z,19.60
2022-10-16T10:38:35.241Z,19.70
2022-10-16T10:41:43.632Z,19.60
2022-10-16T10:44:36.814Z,19.70
2022-10-16T10:47:42.629Z,19.70
2022-10-16T10:50:47.318Z,19.80
2022-10-16T10:53:49.419Z,20.00
2022-10-16T10:56:48.635Z,20.10
2022-10-16T10:59:50.053Z,20.10
2022-10-16T11:02:30.858Z,20.00
2022-10-16T11:05:21.070Z,20.00
2022-10-16T11:08:36.894Z,20.00
2022-10-16T11:11:19.225Z,20.00
2022-10-16T11:14:35.561Z,19.90
2022-10-16T11:17:40.991Z,20.00
2022-10-16T11:20:33.167Z,20.30
2022-10-16T11:23:19.193Z,20.20
2022-10-16T11:25:57.553Z,20.20
2022-10-16T11:28:52.479Z,20.00
2022-10-16T11:31:39.805Z,20.10
2022-10-16T11:34:47.038Z,20.10
2022-10-16T11:37:25.344Z,20.00
2022-10-16T11:40:05.662Z,19.80
2022-10-16T11:42:44.207Z,19.90
2022-10-16T11:45:50.021Z,19.90
2022-10-16T11:49:07.464Z,20.00
2022-10-16T11:51:49.999Z,20.10
2022-10-16T11:54:50.143Z,20.20
2022-10-16T11:57:27.869Z,20.00
2022-10-16T12:00:26.428Z,20.00
2022-10-16T12:03:22.988Z,20.00
2022-10-16T12:06:32.484Z,20.30
2022-10-16T12:09:02.621Z,20.30
2022-10-16T12:11:41.931Z,20.40
2022-10-16T12:14:20.581Z,20.30
2022-10-16T12:17:12.849Z,20.20
2022-10-16T12:19:41.160Z,20.30
2022-10-16T12:22:31.762Z,18.20
2022-10-16T12:25:08.049Z,15.80
2022-10-16T12:27:39.204Z,14.30
2022-10-16T12:30:26.234Z,13.50
2022-10-16T12:33:12.143Z,13.00
2022-10-16T12:36:01.757Z,13.30
2022-10-16T12:39:00.779Z,14.80
2022-10-16T12:41:37.039Z,15.90
2022-10-16T12:44:05.144Z,16.70
2022-10-16T12:46:40.109Z,17.60
2022-10-16T12:49:41.093Z,18.40
2022-10-16T12:52:44.984Z,18.70
2022-10-16T12:55:30.889Z,19.00
2022-10-16T12:58:27.163Z,19.40
2022-10-16T13:01:20.913Z,19.30
2022-10-16T13:04:41.249Z,19.20
2022-10-16T13:07:45.167Z,19.40
2022-10-16T13:11:12.484Z,19.40
2022-10-16T13:14:27.633Z,19.50
2022-10-16T13:17:21.888Z,19.60
2022-10-16T13:20:16.844Z,19.60
2022-10-16T13:23:10.260Z,19.50
2022-10-16T13:26:06.163Z,19.60
2022-10-16T13:28:57.265Z,19.70
2022-10-16T13:31:30.457Z,19.80
2022-10-16T13:34:27.954Z,20.00
2022-10-16T13:36:55.669Z,19.90
2022-10-16T13:39:38.524Z,19.90
2022-10-16T13:42:19.063Z,20.00
2022-10-16T13:44:54.330Z,20.00
2022-10-16T13:47:31.565Z,19.90
2022-10-16T13:50:11.766Z,19.80
2022-10-16T13:52:43.402Z,19.90
2022-10-16T13:55:19.495Z,20.10
2022-10-16T13:57:53.139Z,20.00
2022-10-16T14:01:04.744Z,20.10
2022-10-16T14:03:39.779Z,20.10
2022-10-16T14:06:20.187Z,20.10
2022-10-16T14:08:57.563Z,20.10
2022-10-16T14:11:34.548Z,20.10
2022-10-16T14:14:24.707Z,20.00
2022-10-16T14:16:55.682Z,20.10
2022-10-16T14:19:33.054Z,20.10
2022-10-16T14:22:06.848Z,20.10
2022-10-16T14:24:43.803Z,19.90
2022-10-16T14:27:43.429Z,19.80
2022-10-16T14:30:26.435Z,19.70
2022-10-16T14:33:24.263Z,19.60
2022-10-16T14:36:05.199Z,19.60
2022-10-16T14:38:43.449Z,19.70
2022-10-16T14:41:12.169Z,19.70
2022-10-16T14:43:52.473Z,19.70
2022-10-16T14:46:29.524Z,19.50
2022-10-16T14:49:08.428Z,19.40
2022-10-16T14:51:35.443Z,19.40
2022-10-16T14:54:03.655Z,19.40
2022-10-16T14:56:57.593Z,19.40
2022-10-16T14:59:47.272Z,19.40
2022-10-16T15:02:24.278Z,19.40
2022-10-16T15:07:48.554Z,19.30
2022-10-16T15:10:17.418Z,19.30
2022-10-16T15:12:46.912Z,19.20
2022-10-16T15:15:40.241Z,19.10
2022-10-16T15:18:16.233Z,18.90
2022-10-16T15:20:52.149Z,18.80
2022-10-16T15:23:23.637Z,18.80
2022-10-16T15:25:58.199Z,18.70
2022-10-16T15:28:27.128Z,18.70
2022-10-16T15:30:57.568Z,18.60
2022-10-16T15:33:37.271Z,18.60
2022-10-16T15:39:02.779Z,18.50
2022-10-16T15:41:32.462Z,18.50
2022-10-16T15:43:59.659Z,18.40
2022-10-16T15:46:31.434Z,18.30
2022-10-16T15:49:02.748Z,18.20
2022-10-16T15:51:33.254Z,18.10
2022-10-16T15:54:04.053Z,18.10
2022-10-16T15:56:39.304Z,18.00
2022-10-16T15:59:12.440Z,17.90
2022-10-16T16:01:42.425Z,17.80
2022-10-16T16:04:42.343Z,17.70
2022-10-16T16:07:10.634Z,17.70
2022-10-16T16:09:46.659Z,17.60
2022-10-16T16:12:17.254Z,17.50
2022-10-16T16:14:48.417Z,17.40
2022-10-16T16:17:19.633Z,17.40
2022-10-16T16:19:51.673Z,17.30
2022-10-16T16:22:19.513Z,17.30
2022-10-16T16:24:50.155Z,17.20
2022-10-16T16:27:26.330Z,17.20
2022-10-16T16:29:57.049Z,17.10
2022-10-16T16:32:25.888Z,17.10
2022-10-16T16:34:58.159Z,17.10
2022-10-16T16:37:28.195Z,17.00
2022-10-16T16:40:00.503Z,16.90
2022-10-16T16:42:32.118Z,16.90
2022-10-16T16:45:11.451Z,16.80
2022-10-16T16:47:40.318Z,16.80
2022-10-16T16:50:18.743Z,16.70
2022-10-16T16:52:47.290Z,16.70
2022-10-16T16:55:18.417Z,16.60
2022-10-16T16:57:53.259Z,16.60
2022-10-16T17:00:23.453Z,16.50
2022-10-16T17:02:54.708Z,16.50
2022-10-16T17:08:18.154Z,16.40
2022-10-16T17:10:49.418Z,16.40
2022-10-16T17:13:26.983Z,16.40
2022-10-16T17:16:04.523Z,16.40
2022-10-16T17:18:33.412Z,16.30
2022-10-16T17:21:10.749Z,16.30
2022-10-16T17:23:39.314Z,16.30
2022-10-16T17:26:25.613Z,16.30
2022-10-16T17:29:11.564Z,16.30
2022-10-16T17:31:43.248Z,16.30
2022-10-16T17:34:15.554Z,16.30
2022-10-16T17:36:46.924Z,16.30
2022-10-16T17:39:20.046Z,16.20
2022-10-16T17:41:50.955Z,16.20
2022-10-16T17:47:05.529Z,16.20
2022-10-16T17:49:34.034Z,16.20
2022-10-16T17:52:05.753Z,16.20
2022-10-16T17:54:34.229Z,16.20
2022-10-16T17:57:02.643Z,16.20
2022-10-16T17:59:33.378Z,16.10
2022-10-16T18:02:00.781Z,16.10
2022-10-16T18:04:31.483Z,16.10
2022-10-16T18:07:05.978Z,16.10
2022-10-16T18:09:49.569Z,16.10
2022-10-16T18:12:30.607Z,16.10
2022-10-16T18:15:07.434Z,16.00
2022-10-16T18:17:42.813Z,16.00
2022-10-16T18:20:17.103Z,16.00
2022-10-16T18:22:54.784Z,15.90
2022-10-16T18:25:25.309Z,15.80
2022-10-16T18:27:54.988Z,15.80
2022-10-16T18:30:24.894Z,15.70
2022-10-16T18:33:04.128Z,15.70
2022-10-16T18:35:40.958Z,15.60
2022-10-16T18:38:19.621Z,15.50
2022-10-16T18:40:48.658Z,15.50
2022-10-16T18:43:19.038Z,15.50
2022-10-16T18:46:01.474Z,15.50
2022-10-16T18:48:32.393Z,15.50
2022-10-16T18:51:37.440Z,15.50
2022-10-16T18:54:14.923Z,15.50
2022-10-16T18:56:44.928Z,15.50
2022-10-16T18:59:13.589Z,15.60
2022-10-16T19:01:44.385Z,15.50
2022-10-16T19:04:26.804Z,15.50
2022-10-16T19:06:57.258Z,15.40
2022-10-16T19:09:49.878Z,15.40
2022-10-16T19:12:38.473Z,15.30
2022-10-16T19:15:06.070Z,15.30
2022-10-16T19:17:38.913Z,15.20
2022-10-16T19:20:17.254Z,15.20
2022-10-16T19:22:59.334Z,15.20
2022-10-16T19:25:28.944Z,15.20
2022-10-16T19:28:04.754Z,15.20
2022-10-16T19:30:43.835Z,15.20
2022-10-16T19:33:13.788Z,15.20
2022-10-16T19:35:50.107Z,15.20
2022-10-16T19:38:22.198Z,15.20
2022-10-16T19:41:00.235Z,15.20
2022-10-16T19:43:27.507Z,15.30
2022-10-16T19:45:59.473Z,15.20
2022-10-16T19:48:29.680Z,15.20
2022-10-16T19:51:00.254Z,15.30
2022-10-16T19:53:30.098Z,15.30
2022-10-16T19:56:07.285Z,15.30
2022-10-16T19:58:43.660Z,15.30
2022-10-16T20:01:17.375Z,15.20
2022-10-16T20:03:48.364Z,15.20
2022-10-16T20:06:22.806Z,15.20
2022-10-16T20:08:53.039Z,15.20
2022-10-16T20:11:28.969Z,15.10
2022-10-16T20:13:58.150Z,15.10
2022-10-16T20:16:28.667Z,15.10
2022-10-16T20:19:02.048Z,15.00
2022-10-16T20:21:37.088Z,15.00
2022-10-16T20:24:13.545Z,15.00
2022-10-16T20:26:41.995Z,14.90
2022-10-16T20:29:18.656Z,14.90
2022-10-16T20:31:46.849Z,14.90
2022-10-16T20:34:22.910Z,14.90
2022-10-16T20:37:00.207Z,14.90
2022-10-16T20:39:27.380Z,14.90
2022-10-16T20:41:57.115Z,14.90
2022-10-16T20:44:32.365Z,14.80
2022-10-16T20:47:21.974Z,14.80
2022-10-16T20:49:50.154Z,14.90
2022-10-16T20:52:19.005Z,14.80
2022-10-16T20:54:50.250Z,14.90
2022-10-16T20:57:18.690Z,14.80
2022-10-16T20:59:47.949Z,14.90
2022-10-16T21:02:29.145Z,14.90
2022-10-16T21:04:58.000Z,14.80
2022-10-16T21:07:28.827Z,14.80
2022-10-16T21:09:58.664Z,14.70
2022-10-16T21:12:47.289Z,13.30
2022-10-16T21:15:17.348Z,11.50
2022-10-16T21:17:57.050Z,10.20
2022-10-16T21:20:26.069Z,9.20
2022-10-16T21:22:56.099Z,8.80
2022-10-16T21:25:30.341Z,8.50
2022-10-16T21:28:01.617Z,8.30
2022-10-16T21:30:37.748Z,9.20
2022-10-16T21:33:07.748Z,11.00
2022-10-16T21:35:42.970Z,11.90
2022-10-16T21:38:10.076Z,12.30
2022-10-16T21:40:37.620Z,12.50
2022-10-16T21:43:07.295Z,12.70
2022-10-16T21:45:44.834Z,12.80
2022-10-16T21:48:13.520Z,12.90
2022-10-16T21:50:50.889Z,13.00
2022-10-16T21:53:21.768Z,13.10
2022-10-16T21:55:58.375Z,13.20
2022-10-16T21:58:29.630Z,13.30
2022-10-16T22:01:00.459Z,13.30
2022-10-16T22:03:38.554Z,13.40
2022-10-16T22:06:13.575Z,13.40
2022-10-16T22:08:43.349Z,13.40
2022-10-16T22:11:24.410Z,13.40
2022-10-16T22:13:54.125Z,13.40
2022-10-16T22:16:30.443Z,13.40
2022-10-16T22:18:59.409Z,13.40
2022-10-16T22:21:29.749Z,13.30
2022-10-16T22:23:59.381Z,13.40
2022-10-16T22:26:29.298Z,13.30
2022-10-16T22:28:57.670Z,13.30
2022-10-16T22:31:25.359Z,13.30
2022-10-16T22:33:58.295Z,13.20
2022-10-16T22:36:29.394Z,13.20
2022-10-16T22:39:06.054Z,13.20
2022-10-16T22:41:33.129Z,13.10
2022-10-16T22:44:04.596Z,13.20
2022-10-16T22:46:41.867Z,13.20
2022-10-16T22:49:11.696Z,13.20
2022-10-16T22:52:00.230Z,13.20
2022-10-16T22:54:28.994Z,13.20
2022-10-16T22:56:58.823Z,13.20
2022-10-16T22:59:37.829Z,13.20
2022-10-16T23:02:06.178Z,13.20
2022-10-16T23:04:38.770Z,13.20
2022-10-16T23:07:09.689Z,13.10
2022-10-16T23:09:40.794Z,13.10
2022-10-16T23:12:09.309Z,13.00
2022-10-16T23:14:39.564Z,13.00
2022-10-16T23:17:08.608Z,13.00
2022-10-16T23:19:37.201Z,12.90
2022-10-16T23:22:06.098Z,12.90
2022-10-16T23:24:36.926Z,12.80
2022-10-16T23:27:06.996Z,12.70
2022-10-16T23:29:35.188Z,12.70
2022-10-16T23:32:03.930Z,12.70
2022-10-16T23:34:45.726Z,12.70
2022-10-16T23:37:15.661Z,12.70
2022-10-16T23:39:45.958Z,12.70
2022-10-16T23:42:17.114Z,12.70
2022-10-16T23:44:44.174Z,12.70
2022-10-16T23:47:16.329Z,12.70
2022-10-16T23:49:55.164Z,12.70
2022-10-16T23:52:26.368Z,12.70
2022-10-16T23:55:02.294Z,12.70
2022-10-16T23:57:40.788Z,12.70
